createdAt,value
2023-06-21T00:02:04.611Z,3.50
2023-06-21T00:04:32.433Z,2.90
2023-06-21T00:07:02.175Z,3.00
2023-06-21T00:09:29.929Z,3.37
2023-06-21T00:11:57.656Z,2.70
2023-06-21T00:14:25.360Z,2.80
2023-06-21T00:16:53.080Z,3.10
2023-06-21T00:19:20.823Z,3.40
2023-06-21T00:21:48.549Z,3.00
2023-06-21T00:24:17.742Z,2.90
2023-06-21T00:26:45.445Z,2.90
2023-06-21T00:29:13.188Z,3.27
2023-06-21T00:31:40.925Z,3.10
2023-06-21T00:34:08.983Z,2.90
2023-06-21T00:36:43.103Z,2.87
2023-06-21T00:39:11.671Z,2.37
2023-06-21T00:41:40.727Z,2.50
2023-06-21T00:44:09.399Z,2.53
2023-06-21T00:46:37.174Z,2.90
2023-06-21T00:49:05.987Z,2.83
2023-06-21T00:51:34.449Z,2.40
2023-06-21T00:54:02.483Z,2.87
2023-06-21T00:56:30.296Z,2.87
2023-06-21T00:58:59.396Z,2.80
2023-06-21T01:01:27.706Z,2.70
2023-06-21T01:03:55.512Z,2.60
2023-06-21T01:06:26.333Z,2.77
2023-06-21T01:08:57.425Z,2.97
2023-06-21T01:11:26.707Z,2.60
2023-06-21T01:14:04.352Z,2.97
2023-06-21T01:16:35.417Z,2.80
2023-06-21T01:19:03.202Z,2.80
2023-06-21T01:21:31.034Z,2.80
2023-06-21T01:24:15.706Z,2.70
2023-06-21T01:26:54.810Z,3.30
2023-06-21T01:29:24.061Z,3.10
2023-06-21T01:31:54.483Z,3.27
2023-06-21T01:34:22.769Z,3.50
2023-06-21T01:36:50.548Z,3.00
2023-06-21T01:39:18.676Z,3.80
2023-06-21T01:41:47.248Z,2.70
2023-06-21T01:44:17.307Z,3.47
2023-06-21T01:46:46.520Z,3.33
2023-06-21T01:49:14.405Z,3.23
2023-06-21T01:51:42.562Z,3.20
2023-06-21T01:54:10.435Z,3.27
2023-06-21T01:56:39.371Z,3.07
2023-06-21T01:59:07.123Z,3.30
2023-06-21T02:01:34.974Z,3.87
2023-06-21T02:04:04.205Z,3.33
2023-06-21T02:06:32.625Z,3.53
2023-06-21T02:09:01.373Z,3.50
2023-06-21T02:11:29.198Z,3.53
2023-06-21T02:13:56.991Z,3.40
2023-06-21T02:16:27.764Z,3.73
2023-06-21T02:18:55.488Z,4.03
2023-06-21T02:21:24.857Z,3.67
2023-06-21T02:23:52.602Z,3.87
2023-06-21T02:26:20.330Z,3.13
2023-06-21T02:28:48.163Z,3.93
2023-06-21T02:31:16.004Z,3.90
2023-06-21T02:33:45.913Z,4.20
2023-06-21T02:36:14.855Z,4.00
2023-06-21T02:38:43.966Z,3.43
2023-06-21T02:41:11.727Z,3.83
2023-06-21T02:43:39.430Z,3.77
2023-06-21T02:46:07.229Z,3.90
2023-06-21T02:48:35.027Z,3.70
2023-06-21T02:51:02.756Z,3.90
2023-06-21T02:53:30.589Z,4.00
2023-06-21T02:55:59.988Z,3.80
2023-06-21T02:58:27.769Z,3.60
2023-06-21T03:00:55.542Z,3.80
2023-06-21T03:03:23.448Z,3.97
2023-06-21T03:05:51.360Z,3.53
2023-06-21T03:08:19.135Z,4.23
2023-06-21T03:10:46.840Z,4.07
2023-06-21T03:13:15.929Z,3.20
2023-06-21T03:15:43.784Z,3.63
2023-06-21T03:18:11.501Z,3.83
2023-06-21T03:20:39.295Z,3.77
2023-06-21T03:23:07.038Z,3.27
2023-06-21T03:25:34.763Z,3.83
2023-06-21T03:28:02.529Z,3.40
2023-06-21T03:30:31.835Z,3.80
2023-06-21T03:32:59.870Z,3.43
2023-06-21T03:35:30.232Z,4.00
2023-06-21T03:37:57.983Z,3.23
2023-06-21T03:40:26.154Z,3.20
2023-06-21T03:42:54.553Z,3.20
2023-06-21T03:45:22.328Z,3.87
2023-06-21T03:47:51.512Z,3.37
2023-06-21T03:50:19.279Z,3.13
2023-06-21T03:52:47.120Z,3.47
2023-06-21T03:55:14.916Z,3.60
2023-06-21T03:57:42.672Z,3.77
2023-06-21T04:00:12.279Z,3.70
2023-06-21T04:02:40.301Z,4.10
2023-06-21T04:05:10.748Z,4.27
2023-06-21T04:07:39.351Z,4.37
2023-06-21T04:10:07.849Z,4.80
2023-06-21T04:12:35.766Z,4.40
2023-06-21T04:15:04.800Z,4.50
2023-06-21T04:17:32.555Z,4.80
2023-06-21T04:20:00.327Z,4.57
2023-06-21T04:22:30.873Z,6.57
2023-06-21T04:24:58.618Z,5.83
2023-06-21T04:27:26.362Z,7.00
2023-06-21T04:29:54.900Z,6.83
2023-06-21T04:32:22.767Z,7.23
2023-06-21T04:34:50.538Z,7.10
2023-06-21T04:37:20.256Z,7.33
2023-06-21T04:39:49.606Z,7.87
2023-06-21T04:42:21.347Z,9.10
2023-06-21T04:44:50.386Z,8.93
2023-06-21T04:47:18.317Z,10.73
2023-06-21T04:49:46.065Z,9.43
2023-06-21T04:52:13.889Z,9.00
2023-06-21T04:54:41.630Z,9.13
2023-06-21T04:57:13.673Z,8.50
2023-06-21T04:59:41.540Z,9.10
2023-06-21T05:02:09.356Z,8.70
2023-06-21T05:04:37.145Z,8.97
2023-06-21T05:07:06.545Z,8.60
2023-06-21T05:09:34.298Z,8.23
2023-06-21T05:12:02.004Z,8.00
2023-06-21T05:14:31.091Z,9.40
2023-06-21T05:16:59.040Z,10.07
2023-06-21T05:19:26.750Z,10.83
2023-06-21T05:21:54.581Z,9.27
2023-06-21T05:24:22.505Z,10.27
2023-06-21T05:26:50.247Z,9.80
2023-06-21T05:29:18.116Z,9.93
2023-06-21T05:31:47.241Z,11.10
2023-06-21T05:34:14.961Z,9.53
2023-06-21T05:36:42.732Z,9.80
2023-06-21T05:39:10.527Z,9.00
2023-06-21T05:41:38.343Z,10.60
2023-06-21T05:44:06.229Z,9.17
2023-06-21T05:46:34.082Z,10.67
2023-06-21T05:49:03.532Z,10.07
2023-06-21T05:51:31.379Z,9.50
2023-06-21T05:53:59.432Z,11.53
2023-06-21T05:56:28.223Z,10.17
2023-06-21T05:58:55.968Z,9.83
2023-06-21T06:01:25.530Z,11.10
2023-06-21T06:03:53.682Z,10.17
2023-06-21T06:06:22.835Z,10.83
2023-06-21T06:08:50.731Z,9.67
2023-06-21T06:11:18.445Z,10.70
2023-06-21T06:13:46.165Z,10.00
2023-06-21T06:16:14.490Z,9.97
2023-06-21T06:18:42.333Z,10.97
2023-06-21T06:21:10.094Z,9.83
2023-06-21T06:23:39.290Z,10.03
2023-06-21T06:26:08.802Z,9.13
2023-06-21T06:28:39.048Z,10.37
2023-06-21T06:31:06.794Z,10.60
2023-06-21T06:33:34.590Z,10.90
2023-06-21T06:36:02.332Z,14.57
2023-06-21T06:38:30.079Z,14.03
2023-06-21T06:40:59.285Z,14.97
2023-06-21T06:43:27.072Z,12.27
2023-06-21T06:45:54.855Z,11.17
2023-06-21T06:48:22.733Z,11.13
2023-06-21T06:50:50.596Z,11.07
2023-06-21T06:53:18.443Z,11.00
2023-06-21T06:55:46.139Z,12.00
2023-06-21T06:58:15.247Z,11.17
2023-06-21T07:00:43.172Z,11.07
2023-06-21T07:03:11.015Z,11.40
2023-06-21T07:05:43.318Z,11.50
2023-06-21T07:08:11.374Z,11.33
2023-06-21T07:10:39.110Z,10.20
2023-06-21T07:13:07.576Z,12.17
2023-06-21T07:15:36.747Z,12.03
2023-06-21T07:18:04.879Z,10.80
2023-06-21T07:20:33.450Z,11.33
2023-06-21T07:23:01.777Z,11.47
2023-06-21T07:25:29.680Z,10.90
2023-06-21T07:27:57.565Z,12.40
2023-06-21T07:30:25.510Z,10.83
2023-06-21T07:32:54.785Z,10.17
2023-06-21T07:35:22.538Z,11.37
2023-06-21T07:37:50.280Z,12.30
2023-06-21T07:40:18.019Z,11.40
2023-06-21T07:42:45.983Z,10.80
2023-06-21T07:45:13.936Z,11.13
2023-06-21T07:47:42.632Z,11.43
2023-06-21T07:50:22.025Z,10.80
2023-06-21T07:52:50.973Z,10.17
2023-06-21T07:55:18.916Z,10.33
2023-06-21T07:57:46.802Z,10.70
2023-06-21T08:00:15.127Z,11.00
2023-06-21T08:02:45.295Z,9.60
2023-06-21T08:05:16.031Z,10.37
2023-06-21T08:07:43.971Z,8.33
2023-06-21T08:10:11.854Z,8.80
2023-06-21T08:12:39.671Z,9.00
2023-06-21T08:15:08.453Z,9.30
2023-06-21T08:17:36.221Z,8.23
2023-06-21T08:20:05.028Z,8.90
2023-06-21T08:22:34.314Z,8.63
2023-06-21T08:25:02.046Z,8.37
2023-06-21T08:27:29.885Z,8.17
2023-06-21T08:29:57.641Z,8.40
2023-06-21T08:32:25.885Z,8.10
2023-06-21T08:34:55.158Z,7.57
2023-06-21T08:37:26.330Z,8.23
2023-06-21T08:39:56.661Z,7.33
2023-06-21T08:42:24.563Z,7.70
2023-06-21T08:44:52.402Z,7.70
2023-06-21T08:47:20.190Z,7.50
2023-06-21T08:49:48.074Z,7.80
2023-06-21T08:52:19.304Z,7.97
2023-06-21T08:54:48.611Z,8.43
2023-06-21T08:57:19.996Z,7.50
2023-06-21T08:59:50.211Z,7.53
2023-06-21T09:02:22.394Z,6.93
2023-06-21T09:04:50.971Z,7.40
2023-06-21T09:07:18.885Z,7.37
2023-06-21T09:09:46.777Z,6.70
2023-06-21T09:12:16.943Z,7.30
2023-06-21T09:14:44.712Z,6.37
2023-06-21T09:17:12.564Z,7.40
2023-06-21T09:19:41.258Z,9.27
2023-06-21T09:22:09.105Z,7.93
2023-06-21T09:24:36.843Z,7.07
2023-06-21T09:27:05.167Z,7.73
2023-06-21T09:29:34.310Z,6.13
2023-06-21T09:32:03.124Z,6.93
2023-06-21T09:34:30.953Z,7.33
2023-06-21T09:36:58.816Z,7.10
2023-06-21T09:39:28.746Z,7.80
2023-06-21T09:41:56.488Z,8.53
2023-06-21T09:44:24.644Z,8.27
2023-06-21T09:46:58.986Z,8.03
2023-06-21T09:49:28.039Z,6.80
2023-06-21T09:51:55.851Z,6.40
2023-06-21T09:54:23.711Z,6.97
2023-06-21T09:56:51.445Z,6.57
2023-06-21T09:59:20.490Z,7.00
2023-06-21T10:01:51.037Z,6.70
2023-06-21T10:04:20.195Z,7.10
2023-06-21T10:06:51.578Z,8.40
2023-06-21T10:09:20.023Z,8.53
2023-06-21T10:11:50.183Z,9.47
2023-06-21T10:14:21.970Z,8.87
2023-06-21T10:16:51.686Z,8.13
2023-06-21T10:19:22.544Z,8.50
2023-06-21T10:21:52.817Z,7.73
2023-06-21T10:24:21.378Z,7.00
2023-06-21T10:26:50.566Z,6.23
2023-06-21T10:29:18.362Z,6.77
2023-06-21T10:31:47.614Z,6.50
2023-06-21T10:34:17.709Z,6.27
2023-06-21T10:36:49.607Z,6.33
2023-06-21T10:39:17.437Z,4.97
2023-06-21T10:41:45.267Z,4.60
2023-06-21T10:44:13.180Z,5.00
2023-06-21T10:46:42.730Z,4.90
2023-06-21T10:49:11.001Z,6.00
2023-06-21T10:51:41.560Z,5.23
2023-06-21T10:54:10.869Z,5.00
2023-06-21T10:56:38.762Z,5.13
2023-06-21T10:59:06.543Z,4.90
2023-06-21T11:01:34.343Z,4.00
2023-06-21T11:04:02.118Z,4.33
2023-06-21T11:06:35.343Z,3.93
2023-06-21T11:09:09.283Z,4.90
2023-06-21T11:11:38.721Z,4.40
2023-06-21T11:14:06.427Z,4.67
2023-06-21T11:16:35.465Z,3.60
2023-06-21T11:19:05.395Z,3.40
2023-06-21T11:21:41.458Z,3.90
2023-06-21T11:24:09.877Z,3.60
2023-06-21T11:27:01.282Z,3.30
2023-06-21T11:29:29.943Z,3.43
2023-06-21T11:32:09.372Z,3.20
2023-06-21T11:34:37.127Z,3.10
2023-06-21T11:37:36.103Z,3.07
2023-06-21T11:40:05.348Z,3.20
2023-06-21T11:42:38.148Z,3.00
2023-06-21T11:45:22.303Z,2.90
2023-06-21T11:48:04.211Z,2.50
2023-06-21T11:50:35.933Z,2.70
2023-06-21T11:53:18.071Z,2.40
2023-06-21T11:55:46.613Z,2.33
2023-06-21T11:58:15.756Z,2.20
2023-06-21T12:00:45.583Z,2.63
2023-06-21T12:03:13.656Z,2.23
2023-06-21T12:05:45.906Z,2.50
2023-06-21T12:08:13.680Z,1.83
2023-06-21T12:10:41.649Z,2.23
2023-06-21T12:13:12.556Z,1.83
2023-06-21T12:15:46.424Z,2.17
2023-06-21T12:18:14.292Z,2.90
2023-06-21T12:20:42.681Z,2.83
2023-06-21T12:23:10.540Z,1.83
2023-06-21T12:25:48.104Z,2.03
2023-06-21T12:28:15.894Z,1.80
2023-06-21T12:30:52.078Z,1.80
2023-06-21T12:33:19.823Z,1.80
2023-06-21T12:35:47.558Z,1.80
2023-06-21T12:38:15.815Z,2.10
2023-06-21T12:40:58.692Z,2.00
2023-06-21T12:43:39.166Z,2.03
2023-06-21T12:46:08.717Z,1.93
2023-06-21T12:48:37.085Z,2.07
2023-06-21T12:51:05.094Z,2.10
2023-06-21T12:53:33.626Z,1.83
2023-06-21T12:56:05.566Z,2.00
2023-06-21T12:58:33.663Z,2.30
2023-06-21T13:01:02.985Z,1.80
2023-06-21T13:03:32.181Z,2.10
2023-06-21T13:06:00.151Z,1.97
2023-06-21T13:08:28.083Z,2.03
2023-06-21T13:10:56.434Z,1.50
2023-06-21T13:13:24.151Z,1.77
2023-06-21T13:15:52.079Z,1.73
2023-06-21T13:18:20.261Z,1.70
2023-06-21T13:20:49.460Z,1.70
2023-06-21T13:23:17.268Z,1.80
2023-06-21T13:25:45.025Z,1.87
2023-06-21T13:28:12.751Z,1.80
2023-06-21T13:30:40.469Z,1.90
2023-06-21T13:33:08.440Z,1.70
2023-06-21T13:35:36.250Z,2.10
2023-06-21T13:38:05.444Z,1.87
2023-06-21T13:40:33.188Z,1.77
2023-06-21T13:43:00.926Z,1.97
2023-06-21T13:45:28.759Z,2.57
2023-06-21T13:47:57.114Z,2.70
2023-06-21T13:50:25.012Z,2.23
2023-06-21T13:52:52.845Z,2.00
2023-06-21T13:55:22.240Z,2.90
2023-06-21T13:57:53.648Z,2.30
2023-06-21T14:00:21.972Z,2.30
2023-06-21T14:02:53.195Z,2.20
2023-06-21T14:05:23.026Z,2.40
2023-06-21T14:07:51.126Z,1.97
2023-06-21T14:10:18.906Z,2.40
2023-06-21T14:12:47.987Z,2.80
2023-06-21T14:15:15.710Z,2.20
2023-06-21T14:17:44.001Z,2.17
2023-06-21T14:20:12.571Z,2.57
2023-06-21T14:22:40.294Z,2.90
2023-06-21T14:25:09.685Z,2.43
2023-06-21T14:27:37.539Z,1.90
2023-06-21T14:30:07.867Z,2.27
2023-06-21T14:32:35.805Z,2.77
2023-06-21T14:35:03.520Z,2.63
2023-06-21T14:37:31.293Z,2.53
2023-06-21T14:39:59.076Z,2.37
2023-06-21T14:42:27.121Z,3.60
2023-06-21T14:44:54.907Z,2.67
2023-06-21T14:47:24.111Z,3.03
2023-06-21T14:49:53.291Z,2.83
2023-06-21T14:52:21.170Z,2.47
2023-06-21T14:54:50.557Z,2.30
2023-06-21T14:57:18.385Z,2.47
2023-06-21T14:59:46.574Z,2.50
2023-06-21T15:02:14.442Z,2.13
2023-06-21T15:04:43.528Z,2.27
2023-06-21T15:07:15.160Z,2.53
2023-06-21T15:09:42.883Z,2.47
2023-06-21T15:12:13.560Z,3.07
2023-06-21T15:14:41.468Z,2.23
2023-06-21T15:17:09.480Z,2.83
2023-06-21T15:19:37.641Z,2.77
2023-06-21T15:22:07.230Z,2.27
2023-06-21T15:24:34.984Z,2.47
2023-06-21T15:27:02.725Z,2.50
2023-06-21T15:29:30.442Z,2.60
2023-06-21T15:31:58.152Z,2.17
2023-06-21T15:34:25.922Z,2.83
2023-06-21T15:36:53.737Z,2.57
2023-06-21T15:39:22.856Z,3.00
2023-06-21T15:41:51.019Z,2.37
2023-06-21T15:44:18.771Z,2.50
2023-06-21T15:46:47.381Z,2.50
2023-06-21T15:49:16.298Z,2.83
2023-06-21T15:51:44.177Z,2.43
2023-06-21T15:54:11.943Z,2.50
2023-06-21T15:56:41.286Z,2.30
2023-06-21T15:59:09.216Z,2.20
2023-06-21T16:01:37.061Z,2.30
2023-06-21T16:04:05.526Z,2.70
2023-06-21T16:06:33.400Z,2.10
2023-06-21T16:09:01.148Z,2.50
2023-06-21T16:11:28.971Z,2.17
2023-06-21T16:13:58.058Z,2.30
2023-06-21T16:16:25.818Z,2.20
2023-06-21T16:18:55.673Z,2.03
2023-06-21T16:21:23.423Z,2.30
2023-06-21T16:23:51.804Z,2.10
2023-06-21T16:26:21.754Z,1.97
2023-06-21T16:28:50.322Z,2.27
2023-06-21T16:31:19.445Z,2.10
2023-06-21T16:33:47.178Z,1.80
2023-06-21T16:36:14.896Z,2.00
2023-06-21T16:38:42.670Z,2.10
2023-06-21T16:41:10.478Z,2.60
2023-06-21T16:43:38.198Z,2.20
2023-06-21T16:46:06.078Z,2.07
2023-06-21T16:48:35.214Z,1.83
2023-06-21T16:51:02.957Z,2.10
2023-06-21T16:53:31.295Z,2.23
2023-06-21T16:55:59.037Z,2.50
2023-06-21T16:58:26.748Z,3.10
2023-06-21T17:00:54.517Z,1.93
2023-06-21T17:03:22.485Z,3.10
2023-06-21T17:05:51.986Z,2.27
2023-06-21T17:08:19.700Z,2.40
2023-06-21T17:10:47.422Z,2.40
2023-06-21T17:13:15.122Z,2.20
2023-06-21T17:15:43.015Z,2.50
2023-06-21T17:18:12.286Z,2.60
2023-06-21T17:20:40.058Z,2.40
2023-06-21T17:23:09.123Z,2.27
2023-06-21T17:25:37.205Z,2.23
2023-06-21T17:28:05.238Z,2.23
2023-06-21T17:30:33.048Z,2.80
2023-06-21T17:33:00.963Z,2.30
2023-06-21T17:35:29.489Z,2.23
2023-06-21T17:37:57.426Z,1.90
2023-06-21T17:40:26.560Z,2.30
2023-06-21T17:42:54.309Z,2.03
2023-06-21T17:45:22.100Z,2.47
2023-06-21T17:47:50.123Z,2.00
2023-06-21T17:50:18.014Z,2.23
2023-06-21T17:52:45.834Z,2.70
2023-06-21T17:55:13.644Z,2.93
2023-06-21T17:57:43.180Z,2.93
2023-06-21T18:00:11.880Z,2.70
2023-06-21T18:02:39.907Z,2.80
2023-06-21T18:05:13.023Z,3.10
2023-06-21T18:07:40.838Z,3.00
2023-06-21T18:10:09.347Z,2.70
2023-06-21T18:12:37.099Z,3.20
2023-06-21T18:15:07.760Z,2.97
2023-06-21T18:17:38.203Z,2.80
2023-06-21T18:20:07.056Z,4.10
2023-06-21T18:22:43.296Z,3.27
2023-06-21T18:25:11.888Z,2.80
2023-06-21T18:27:39.722Z,3.10
2023-06-21T18:30:10.529Z,2.57
2023-06-21T18:32:39.334Z,3.30
2023-06-21T18:35:09.710Z,2.93
2023-06-21T18:37:38.373Z,2.87
2023-06-21T18:40:07.113Z,2.43
2023-06-21T18:42:34.963Z,2.60
2023-06-21T18:45:02.694Z,2.93
2023-06-21T18:47:31.979Z,2.87
2023-06-21T18:49:59.825Z,3.03
2023-06-21T18:52:28.592Z,3.30
2023-06-21T18:54:56.398Z,3.20
2023-06-21T18:57:24.808Z,3.27
2023-06-21T18:59:52.557Z,3.27
2023-06-21T19:02:20.359Z,3.10
2023-06-21T19:04:51.220Z,2.87
2023-06-21T19:07:19.124Z,2.73
2023-06-21T19:09:46.948Z,2.53
2023-06-21T19:12:14.774Z,3.30
2023-06-21T19:14:43.487Z,3.10
2023-06-21T19:17:11.251Z,3.33
2023-06-21T19:19:39.084Z,3.10
2023-06-21T19:22:09.865Z,2.67
2023-06-21T19:24:37.647Z,2.30
2023-06-21T19:27:06.050Z,3.27
2023-06-21T19:29:33.879Z,3.00
2023-06-21T19:32:01.683Z,3.00
2023-06-21T19:34:29.622Z,2.93
2023-06-21T19:36:57.391Z,2.90
2023-06-21T19:39:26.508Z,2.80
2023-06-21T19:41:54.309Z,2.87
2023-06-21T19:44:22.283Z,3.17
2023-06-21T19:46:50.664Z,3.40
2023-06-21T19:49:19.429Z,2.80
2023-06-21T19:51:47.284Z,2.77
2023-06-21T19:54:19.330Z,2.70
2023-06-21T19:56:48.463Z,3.30
2023-06-21T19:59:16.743Z,3.10
2023-06-21T20:01:44.625Z,3.17
2023-06-21T20:04:12.491Z,2.50
2023-06-21T20:06:40.272Z,2.77
2023-06-21T20:09:08.025Z,2.90
2023-06-21T20:11:35.807Z,2.53
2023-06-21T20:14:05.036Z,2.43
2023-06-21T20:16:32.797Z,2.87
2023-06-21T20:19:01.651Z,2.60
2023-06-21T20:21:29.420Z,2.67
2023-06-21T20:23:57.238Z,2.70
2023-06-21T20:26:24.999Z,2.77
2023-06-21T20:28:52.752Z,2.63
2023-06-21T20:31:21.953Z,2.70
2023-06-21T20:33:49.774Z,2.17
2023-06-21T20:36:23.182Z,2.83
2023-06-21T20:38:51.121Z,3.00
2023-06-21T20:41:19.005Z,2.97
2023-06-21T20:43:46.767Z,2.50
2023-06-21T20:46:16.999Z,2.23
2023-06-21T20:48:46.670Z,2.77
2023-06-21T20:51:14.476Z,2.57
2023-06-21T20:53:44.292Z,2.80
2023-06-21T20:56:13.895Z,3.00
2023-06-21T20:58:41.651Z,2.60
2023-06-21T21:01:15.079Z,3.50
2023-06-21T21:03:43.074Z,3.17
2023-06-21T21:06:12.352Z,2.80
2023-06-21T21:08:40.194Z,2.70
2023-06-21T21:11:10.312Z,3.17
2023-06-21T21:13:39.519Z,2.80
2023-06-21T21:16:07.382Z,2.70
2023-06-21T21:18:35.169Z,3.13
2023-06-21T21:21:06.359Z,2.83
2023-06-21T21:23:35.451Z,2.50
2023-06-21T21:26:04.173Z,2.83
2023-06-21T21:28:32.255Z,2.57
2023-06-21T21:31:00.056Z,3.07
2023-06-21T21:33:27.799Z,2.70
2023-06-21T21:35:55.570Z,2.50
2023-06-21T21:38:24.201Z,2.50
2023-06-21T21:40:53.289Z,3.13
2023-06-21T21:43:21.130Z,2.83
2023-06-21T21:45:49.870Z,2.83
2023-06-21T21:48:17.698Z,3.10
2023-06-21T21:50:46.289Z,3.10
2023-06-21T21:53:14.976Z,3.60
2023-06-21T21:55:42.873Z,3.40
2023-06-21T21:58:14.051Z,2.60
2023-06-21T22:00:41.766Z,3.00
2023-06-21T22:03:09.967Z,2.33
2023-06-21T22:05:37.984Z,2.83
2023-06-21T22:08:06.254Z,2.70
2023-06-21T22:10:39.095Z,3.20
2023-06-21T22:13:11.254Z,3.30
2023-06-21T22:15:50.386Z,4.13
2023-06-21T22:18:24.844Z,3.20
2023-06-21T22:20:53.630Z,3.10
2023-06-21T22:23:21.346Z,3.67
2023-06-21T22:25:49.084Z,3.30
2023-06-21T22:28:16.845Z,3.30
2023-06-21T22:30:46.125Z,3.60
2023-06-21T22:33:13.910Z,2.80
2023-06-21T22:35:42.123Z,2.97
2023-06-21T22:38:09.963Z,3.07
2023-06-21T22:40:37.680Z,3.03
2023-06-21T22:43:05.792Z,3.90
2023-06-21T22:45:34.584Z,3.10
2023-06-21T22:48:08.006Z,3.27
2023-06-21T22:50:35.975Z,3.43
2023-06-21T22:53:05.138Z,3.43
2023-06-21T22:55:32.916Z,3.00
2023-06-21T22:58:01.243Z,3.53
2023-06-21T23:00:29.337Z,3.60
2023-06-21T23:02:57.422Z,4.07
2023-06-21T23:05:28.618Z,3.90
2023-06-21T23:07:56.348Z,3.70
2023-06-21T23:10:24.139Z,3.90
2023-06-21T23:12:51.985Z,3.40
2023-06-21T23:15:20.323Z,3.20
2023-06-21T23:17:48.129Z,3.67
2023-06-21T23:20:16.952Z,3.93
2023-06-21T23:22:47.089Z,3.60
2023-06-21T23:25:14.988Z,4.20
2023-06-21T23:27:43.948Z,3.77
2023-06-21T23:30:34.512Z,3.87
2023-06-21T23:33:00.757Z,4.70
2023-06-21T23:35:28.512Z,4.20
2023-06-21T23:37:58.182Z,4.63
2023-06-21T23:40:26.261Z,4.33
2023-06-21T23:42:55.587Z,4.87
2023-06-21T23:45:23.368Z,5.03
2023-06-21T23:47:51.124Z,5.03
2023-06-21T23:50:19.016Z,4.07
2023-06-21T23:52:46.717Z,4.30
2023-06-21T23:55:18.217Z,4.30
2023-06-21T23:57:45.990Z,5.30
